sensor_id;sensor_type;location;lat;lon;timestamp;temperature;humidity
14471;DHT22;7321;50.802;4.336;2023-03-31T00:01:34;14.00;99.90
14471;DHT22;7321;50.802;4.336;2023-03-31T00:04:00;13.90;99.90
14471;DHT22;7321;50.802;4.336;2023-03-31T00:06:34;13.90;99.90
14471;DHT22;7321;50.802;4.336;2023-03-31T00:09:04;13.80;99.90
14471;DHT22;7321;50.802;4.336;2023-03-31T00:11:30;13.90;99.90
14471;DHT22;7321;50.802;4.336;2023-03-31T00:13:56;13.80;99.90
14471;DHT22;7321;50.802;4.336;2023-03-31T00:16:22;13.60;99.90
14471;DHT22;7321;50.802;4.336;2023-03-31T00:18:48;13.60;99.90
14471;DHT22;7321;50.802;4.336;2023-03-31T00:21:20;13.60;99.90
14471;DHT22;7321;50.802;4.336;2023-03-31T00:23:52;13.50;99.90
14471;DHT22;7321;50.802;4.336;2023-03-31T00:26:18;13.50;99.90
14471;DHT22;7321;50.802;4.336;2023-03-31T00:28:44;13.40;99.90
14471;DHT22;7321;50.802;4.336;2023-03-31T00:31:09;13.50;99.90
14471;DHT22;7321;50.802;4.336;2023-03-31T00:33:35;13.50;99.90
14471;DHT22;7321;50.802;4.336;2023-03-31T00:36:01;13.50;99.90
14471;DHT22;7321;50.802;4.336;2023-03-31T00:38:31;13.60;99.90
14471;DHT22;7321;50.802;4.336;2023-03-31T00:40:58;13.60;99.90
14471;DHT22;7321;50.802;4.336;2023-03-31T00:43:36;13.70;99.90
14471;DHT22;7321;50.802;4.336;2023-03-31T00:46:06;13.60;99.90
14471;DHT22;7321;50.802;4.336;2023-03-31T00:48:48;13.50;99.90
14471;DHT22;7321;50.802;4.336;2023-03-31T00:51:16;13.40;99.90
14471;DHT22;7321;50.802;4.336;2023-03-31T00:53:45;13.40;99.90
14471;DHT22;7321;50.802;4.336;2023-03-31T00:56:16;13.30;99.90
14471;DHT22;7321;50.802;4.336;2023-03-31T00:58:42;13.10;99.90
14471;DHT22;7321;50.802;4.336;2023-03-31T01:01:13;13.20;99.90
14471;DHT22;7321;50.802;4.336;2023-03-31T01:03:41;13.20;99.90
14471;DHT22;7321;50.802;4.336;2023-03-31T01:06:13;13.10;99.90
14471;DHT22;7321;50.802;4.336;2023-03-31T01:08:40;13.10;99.90
14471;DHT22;7321;50.802;4.336;2023-03-31T01:11:09;13.20;99.90
14471;DHT22;7321;50.802;4.336;2023-03-31T01:13:38;13.10;99.90
14471;DHT22;7321;50.802;4.336;2023-03-31T01:16:04;13.10;99.90
14471;DHT22;7321;50.802;4.336;2023-03-31T01:18:30;12.90;99.90
14471;DHT22;7321;50.802;4.336;2023-03-31T01:41:37;12.60;99.90
14471;DHT22;7321;50.802;4.336;2023-03-31T01:44:25;12.60;99.90
14471;DHT22;7321;50.802;4.336;2023-03-31T01:46:57;12.50;99.90
14471;DHT22;7321;50.802;4.336;2023-03-31T01:52:07;12.40;99.90
14471;DHT22;7321;50.802;4.336;2023-03-31T01:54:54;12.50;99.90
14471;DHT22;7321;50.802;4.336;2023-03-31T01:57:33;12.40;99.90
14471;DHT22;7321;50.802;4.336;2023-03-31T02:00:04;12.30;99.90
14471;DHT22;7321;50.802;4.336;2023-03-31T02:02:35;12.40;99.90
14471;DHT22;7321;50.802;4.336;2023-03-31T02:05:14;12.20;99.90
14471;DHT22;7321;50.802;4.336;2023-03-31T02:07:54;12.10;99.90
14471;DHT22;7321;50.802;4.336;2023-03-31T02:10:22;12.10;99.90
14471;DHT22;7321;50.802;4.336;2023-03-31T02:12:50;12.10;99.90
14471;DHT22;7321;50.802;4.336;2023-03-31T02:15:24;12.20;99.90
14471;DHT22;7321;50.802;4.336;2023-03-31T02:17:54;12.20;99.90
14471;DHT22;7321;50.802;4.336;2023-03-31T02:20:21;12.20;99.90
14471;DHT22;7321;50.802;4.336;2023-03-31T02:22:55;12.20;99.90
14471;DHT22;7321;50.802;4.336;2023-03-31T02:25:26;12.20;99.90
14471;DHT22;7321;50.802;4.336;2023-03-31T02:28:05;12.20;99.90
14471;DHT22;7321;50.802;4.336;2023-03-31T02:30:48;12.20;99.90
14471;DHT22;7321;50.802;4.336;2023-03-31T02:33:16;12.20;99.90
14471;DHT22;7321;50.802;4.336;2023-03-31T02:35:42;12.20;99.90
14471;DHT22;7321;50.802;4.336;2023-03-31T02:38:07;12.20;99.90
14471;DHT22;7321;50.802;4.336;2023-03-31T02:40:34;12.20;99.90
14471;DHT22;7321;50.802;4.336;2023-03-31T02:43:00;12.30;99.90
14471;DHT22;7321;50.802;4.336;2023-03-31T02:45:47;12.20;99.90
14471;DHT22;7321;50.802;4.336;2023-03-31T02:48:27;12.30;99.90
14471;DHT22;7321;50.802;4.336;2023-03-31T03:02:18;12.30;99.90
14471;DHT22;7321;50.802;4.336;2023-03-31T03:05:00;12.30;99.90
14471;DHT22;7321;50.802;4.336;2023-03-31T03:17:37;12.60;99.90
14471;DHT22;7321;50.802;4.336;2023-03-31T03:20:05;12.60;99.90
14471;DHT22;7321;50.802;4.336;2023-03-31T03:22:35;12.60;99.90
14471;DHT22;7321;50.802;4.336;2023-03-31T03:25:03;12.40;99.90
14471;DHT22;7321;50.802;4.336;2023-03-31T03:27:29;12.40;99.90
14471;DHT22;7321;50.802;4.336;2023-03-31T03:29:54;12.40;99.90
14471;DHT22;7321;50.802;4.336;2023-03-31T03:32:21;12.50;99.90
14471;DHT22;7321;50.802;4.336;2023-03-31T03:34:47;12.50;99.90
14471;DHT22;7321;50.802;4.336;2023-03-31T03:37:12;12.60;99.90
14471;DHT22;7321;50.802;4.336;2023-03-31T03:39:38;12.60;99.90
14471;DHT22;7321;50.802;4.336;2023-03-31T03:42:04;12.60;99.90
14471;DHT22;7321;50.802;4.336;2023-03-31T03:44:30;12.50;99.90
14471;DHT22;7321;50.802;4.336;2023-03-31T03:46:56;12.30;99.90
14471;DHT22;7321;50.802;4.336;2023-03-31T03:49:22;12.20;99.90
14471;DHT22;7321;50.802;4.336;2023-03-31T03:51:48;12.00;99.90
14471;DHT22;7321;50.802;4.336;2023-03-31T03:54:16;12.00;99.90
14471;DHT22;7321;50.802;4.336;2023-03-31T03:56:45;12.00;99.90
14471;DHT22;7321;50.802;4.336;2023-03-31T03:59:11;12.00;99.90
14471;DHT22;7321;50.802;4.336;2023-03-31T04:01:37;12.00;99.90
14471;DHT22;7321;50.802;4.336;2023-03-31T04:04:03;11.90;99.90
14471;DHT22;7321;50.802;4.336;2023-03-31T04:06:29;11.70;99.90
14471;DHT22;7321;50.802;4.336;2023-03-31T04:08:54;11.60;99.90
14471;DHT22;7321;50.802;4.336;2023-03-31T04:11:20;11.50;99.90
14471;DHT22;7321;50.802;4.336;2023-03-31T04:13:46;11.60;99.90
14471;DHT22;7321;50.802;4.336;2023-03-31T04:16:13;11.60;99.90
14471;DHT22;7321;50.802;4.336;2023-03-31T04:18:39;11.70;99.90
14471;DHT22;7321;50.802;4.336;2023-03-31T04:21:08;11.90;99.90
14471;DHT22;7321;50.802;4.336;2023-03-31T04:23:38;12.00;99.90
14471;DHT22;7321;50.802;4.336;2023-03-31T04:26:14;12.00;99.90
14471;DHT22;7321;50.802;4.336;2023-03-31T04:28:40;11.90;99.90
14471;DHT22;7321;50.802;4.336;2023-03-31T04:31:08;12.00;99.90
14471;DHT22;7321;50.802;4.336;2023-03-31T04:33:35;11.90;99.90
14471;DHT22;7321;50.802;4.336;2023-03-31T04:36:05;11.90;99.90
14471;DHT22;7321;50.802;4.336;2023-03-31T04:38:43;11.90;99.90
14471;DHT22;7321;50.802;4.336;2023-03-31T04:41:14;11.90;99.90
14471;DHT22;7321;50.802;4.336;2023-03-31T04:43:40;12.00;99.90
14471;DHT22;7321;50.802;4.336;2023-03-31T04:46:06;12.00;99.90
14471;DHT22;7321;50.802;4.336;2023-03-31T04:48:32;12.00;99.90
14471;DHT22;7321;50.802;4.336;2023-03-31T04:50:58;12.00;99.90
14471;DHT22;7321;50.802;4.336;2023-03-31T04:53:24;12.10;99.90
14471;DHT22;7321;50.802;4.336;2023-03-31T04:55:50;12.20;99.90
14471;DHT22;7321;50.802;4.336;2023-03-31T04:58:17;12.30;99.90
14471;DHT22;7321;50.802;4.336;2023-03-31T05:00:43;12.20;99.90
14471;DHT22;7321;50.802;4.336;2023-03-31T05:03:09;12.30;99.90
14471;DHT22;7321;50.802;4.336;2023-03-31T05:05:35;12.40;99.90
14471;DHT22;7321;50.802;4.336;2023-03-31T05:08:02;12.40;99.90
14471;DHT22;7321;50.802;4.336;2023-03-31T05:10:29;12.50;99.90
14471;DHT22;7321;50.802;4.336;2023-03-31T05:12:55;12.50;99.90
14471;DHT22;7321;50.802;4.336;2023-03-31T05:15:21;12.50;99.90
14471;DHT22;7321;50.802;4.336;2023-03-31T05:17:49;12.50;99.90
14471;DHT22;7321;50.802;4.336;2023-03-31T05:20:15;12.50;99.90
14471;DHT22;7321;50.802;4.336;2023-03-31T05:22:41;12.50;99.90
14471;DHT22;7321;50.802;4.336;2023-03-31T05:25:08;12.40;99.90
14471;DHT22;7321;50.802;4.336;2023-03-31T05:27:36;12.40;99.90
14471;DHT22;7321;50.802;4.336;2023-03-31T05:30:03;12.40;99.90
14471;DHT22;7321;50.802;4.336;2023-03-31T05:32:29;12.30;99.90
14471;DHT22;7321;50.802;4.336;2023-03-31T05:34:55;12.20;99.90
14471;DHT22;7321;50.802;4.336;2023-03-31T05:37:23;12.30;99.90
14471;DHT22;7321;50.802;4.336;2023-03-31T05:39:50;12.20;99.90
14471;DHT22;7321;50.802;4.336;2023-03-31T05:42:16;12.30;99.90
14471;DHT22;7321;50.802;4.336;2023-03-31T05:44:42;12.30;99.90
14471;DHT22;7321;50.802;4.336;2023-03-31T05:47:08;12.40;99.90
14471;DHT22;7321;50.802;4.336;2023-03-31T05:49:34;12.30;99.90
14471;DHT22;7321;50.802;4.336;2023-03-31T05:52:00;12.40;99.90
14471;DHT22;7321;50.802;4.336;2023-03-31T05:54:26;12.40;99.90
14471;DHT22;7321;50.802;4.336;2023-03-31T05:56:52;12.50;99.90
14471;DHT22;7321;50.802;4.336;2023-03-31T05:59:18;12.60;99.90
14471;DHT22;7321;50.802;4.336;2023-03-31T06:01:44;12.50;99.90
14471;DHT22;7321;50.802;4.336;2023-03-31T06:04:09;12.50;99.90
14471;DHT22;7321;50.802;4.336;2023-03-31T06:06:35;12.40;99.90
14471;DHT22;7321;50.802;4.336;2023-03-31T06:09:03;12.40;99.90
14471;DHT22;7321;50.802;4.336;2023-03-31T06:11:29;12.40;99.90
14471;DHT22;7321;50.802;4.336;2023-03-31T06:13:55;12.50;99.90
14471;DHT22;7321;50.802;4.336;2023-03-31T06:16:21;12.60;99.90
14471;DHT22;7321;50.802;4.336;2023-03-31T06:18:47;12.70;99.90
14471;DHT22;7321;50.802;4.336;2023-03-31T06:21:17;12.80;99.90
14471;DHT22;7321;50.802;4.336;2023-03-31T06:23:44;12.80;99.90
14471;DHT22;7321;50.802;4.336;2023-03-31T06:26:13;12.90;99.90
14471;DHT22;7321;50.802;4.336;2023-03-31T06:28:39;13.00;99.90
14471;DHT22;7321;50.802;4.336;2023-03-31T06:31:10;13.10;99.90
14471;DHT22;7321;50.802;4.336;2023-03-31T06:33:38;13.10;99.90
14471;DHT22;7321;50.802;4.336;2023-03-31T06:36:06;13.10;99.90
14471;DHT22;7321;50.802;4.336;2023-03-31T06:38:33;13.10;99.90
14471;DHT22;7321;50.802;4.336;2023-03-31T06:40:59;13.10;99.90
14471;DHT22;7321;50.802;4.336;2023-03-31T06:43:25;13.10;99.90
14471;DHT22;7321;50.802;4.336;2023-03-31T06:45:55;13.00;99.90
14471;DHT22;7321;50.802;4.336;2023-03-31T06:48:24;13.10;99.90
14471;DHT22;7321;50.802;4.336;2023-03-31T06:50:51;13.10;99.90
14471;DHT22;7321;50.802;4.336;2023-03-31T06:53:17;13.20;99.90
14471;DHT22;7321;50.802;4.336;2023-03-31T06:55:43;13.20;99.90
14471;DHT22;7321;50.802;4.336;2023-03-31T06:58:09;13.00;99.90
14471;DHT22;7321;50.802;4.336;2023-03-31T07:00:36;13.10;99.90
14471;DHT22;7321;50.802;4.336;2023-03-31T07:03:03;13.10;99.90
14471;DHT22;7321;50.802;4.336;2023-03-31T07:05:30;13.20;99.90
14471;DHT22;7321;50.802;4.336;2023-03-31T07:07:57;13.30;99.90
14471;DHT22;7321;50.802;4.336;2023-03-31T07:10:26;13.30;99.90
14471;DHT22;7321;50.802;4.336;2023-03-31T07:12:51;13.30;99.90
14471;DHT22;7321;50.802;4.336;2023-03-31T07:15:18;13.40;99.90
14471;DHT22;7321;50.802;4.336;2023-03-31T07:17:43;13.40;99.90
14471;DHT22;7321;50.802;4.336;2023-03-31T07:20:11;13.40;99.90
14471;DHT22;7321;50.802;4.336;2023-03-31T07:22:38;13.40;99.90
14471;DHT22;7321;50.802;4.336;2023-03-31T07:25:09;13.50;99.90
14471;DHT22;7321;50.802;4.336;2023-03-31T07:27:36;13.50;99.90
14471;DHT22;7321;50.802;4.336;2023-03-31T07:30:06;13.60;99.90
14471;DHT22;7321;50.802;4.336;2023-03-31T07:32:32;13.60;99.90
14471;DHT22;7321;50.802;4.336;2023-03-31T07:34:59;13.50;99.90
14471;DHT22;7321;50.802;4.336;2023-03-31T07:37:25;13.40;99.90
14471;DHT22;7321;50.802;4.336;2023-03-31T07:39:51;13.50;99.90
14471;DHT22;7321;50.802;4.336;2023-03-31T07:42:16;13.30;99.90
14471;DHT22;7321;50.802;4.336;2023-03-31T07:44:42;13.40;99.90
14471;DHT22;7321;50.802;4.336;2023-03-31T07:47:08;13.40;99.90
14471;DHT22;7321;50.802;4.336;2023-03-31T07:49:34;13.40;99.90
14471;DHT22;7321;50.802;4.336;2023-03-31T07:52:01;13.30;99.90
14471;DHT22;7321;50.802;4.336;2023-03-31T07:54:27;13.30;99.90
14471;DHT22;7321;50.802;4.336;2023-03-31T07:56:53;13.30;99.90
14471;DHT22;7321;50.802;4.336;2023-03-31T07:59:19;13.20;99.90
14471;DHT22;7321;50.802;4.336;2023-03-31T08:01:46;13.20;99.90
14471;DHT22;7321;50.802;4.336;2023-03-31T08:04:12;13.30;99.90
14471;DHT22;7321;50.802;4.336;2023-03-31T08:06:38;13.30;99.90
14471;DHT22;7321;50.802;4.336;2023-03-31T08:09:05;13.40;99.90
14471;DHT22;7321;50.802;4.336;2023-03-31T08:11:33;13.40;99.90
14471;DHT22;7321;50.802;4.336;2023-03-31T08:14:00;13.40;99.90
14471;DHT22;7321;50.802;4.336;2023-03-31T08:16:25;13.40;99.90
14471;DHT22;7321;50.802;4.336;2023-03-31T08:18:51;13.40;99.90
14471;DHT22;7321;50.802;4.336;2023-03-31T08:21:17;13.50;99.90
14471;DHT22;7321;50.802;4.336;2023-03-31T08:23:43;13.40;99.90
14471;DHT22;7321;50.802;4.336;2023-03-31T08:26:14;13.40;99.90
14471;DHT22;7321;50.802;4.336;2023-03-31T08:28:42;13.50;99.90
14471;DHT22;7321;50.802;4.336;2023-03-31T08:31:09;13.50;99.90
14471;DHT22;7321;50.802;4.336;2023-03-31T08:33:36;13.60;99.90
14471;DHT22;7321;50.802;4.336;2023-03-31T08:36:06;13.50;99.90
14471;DHT22;7321;50.802;4.336;2023-03-31T08:38:39;13.40;99.90
14471;DHT22;7321;50.802;4.336;2023-03-31T08:43:55;13.70;99.90
14471;DHT22;7321;50.802;4.336;2023-03-31T08:46:22;13.60;99.90
14471;DHT22;7321;50.802;4.336;2023-03-31T08:48:57;13.60;99.90
14471;DHT22;7321;50.802;4.336;2023-03-31T08:54:03;13.70;99.90
14471;DHT22;7321;50.802;4.336;2023-03-31T08:56:42;13.80;99.90
14471;DHT22;7321;50.802;4.336;2023-03-31T08:59:32;13.80;99.90
14471;DHT22;7321;50.802;4.336;2023-03-31T09:07:43;13.60;99.90
14471;DHT22;7321;50.802;4.336;2023-03-31T09:16:03;13.60;99.90
14471;DHT22;7321;50.802;4.336;2023-03-31T09:18:34;13.50;99.90
14471;DHT22;7321;50.802;4.336;2023-03-31T09:24:03;13.70;99.90
14471;DHT22;7321;50.802;4.336;2023-03-31T09:29:19;14.10;99.90
14471;DHT22;7321;50.802;4.336;2023-03-31T09:31:46;14.20;99.90
14471;DHT22;7321;50.802;4.336;2023-03-31T09:34:24;14.20;99.90
14471;DHT22;7321;50.802;4.336;2023-03-31T09:36:51;14.10;99.90
14471;DHT22;7321;50.802;4.336;2023-03-31T09:39:17;14.20;99.90
14471;DHT22;7321;50.802;4.336;2023-03-31T09:41:48;14.20;99.90
14471;DHT22;7321;50.802;4.336;2023-03-31T09:46:47;14.20;99.90
14471;DHT22;7321;50.802;4.336;2023-03-31T09:49:17;14.20;99.90
14471;DHT22;7321;50.802;4.336;2023-03-31T09:51:47;14.20;99.90
14471;DHT22;7321;50.802;4.336;2023-03-31T09:54:33;14.00;99.90
14471;DHT22;7321;50.802;4.336;2023-03-31T09:56:59;13.90;99.90
14471;DHT22;7321;50.802;4.336;2023-03-31T09:59:33;13.80;99.90
14471;DHT22;7321;50.802;4.336;2023-03-31T10:02:03;14.00;99.90
14471;DHT22;7321;50.802;4.336;2023-03-31T10:04:33;13.90;99.90
14471;DHT22;7321;50.802;4.336;2023-03-31T10:07:00;13.90;99.90
14471;DHT22;7321;50.802;4.336;2023-03-31T10:09:33;13.80;99.90
14471;DHT22;7321;50.802;4.336;2023-03-31T10:12:05;13.70;99.90
14471;DHT22;7321;50.802;4.336;2023-03-31T10:14:39;13.80;99.90
14471;DHT22;7321;50.802;4.336;2023-03-31T10:17:05;13.80;99.90
14471;DHT22;7321;50.802;4.336;2023-03-31T10:19:36;13.70;99.90
14471;DHT22;7321;50.802;4.336;2023-03-31T10:22:13;13.60;99.90
14471;DHT22;7321;50.802;4.336;2023-03-31T10:24:42;13.60;99.90
14471;DHT22;7321;50.802;4.336;2023-03-31T10:27:32;13.70;99.90
14471;DHT22;7321;50.802;4.336;2023-03-31T10:29:59;13.80;99.90
14471;DHT22;7321;50.802;4.336;2023-03-31T10:32:31;13.90;99.90
14471;DHT22;7321;50.802;4.336;2023-03-31T10:35:07;13.90;99.90
14471;DHT22;7321;50.802;4.336;2023-03-31T10:37:36;13.90;99.90
14471;DHT22;7321;50.802;4.336;2023-03-31T10:40:03;13.90;99.90
14471;DHT22;7321;50.802;4.336;2023-03-31T10:42:31;14.00;99.90
14471;DHT22;7321;50.802;4.336;2023-03-31T10:45:28;14.00;99.90
14471;DHT22;7321;50.802;4.336;2023-03-31T10:47:57;14.10;99.90
14471;DHT22;7321;50.802;4.336;2023-03-31T10:50:32;14.10;99.90
14471;DHT22;7321;50.802;4.336;2023-03-31T10:53:04;14.30;99.90
14471;DHT22;7321;50.802;4.336;2023-03-31T11:04:11;13.70;99.90
14471;DHT22;7321;50.802;4.336;2023-03-31T11:07:01;13.90;99.90
14471;DHT22;7321;50.802;4.336;2023-03-31T11:15:37;14.30;99.90
14471;DHT22;7321;50.802;4.336;2023-03-31T11:20:59;14.40;99.90
14471;DHT22;7321;50.802;4.336;2023-03-31T11:26:45;14.50;99.90
14471;DHT22;7321;50.802;4.336;2023-03-31T11:43:27;14.70;99.90
14471;DHT22;7321;50.802;4.336;2023-03-31T11:52:18;14.30;99.90
14471;DHT22;7321;50.802;4.336;2023-03-31T11:54:59;14.40;99.90
14471;DHT22;7321;50.802;4.336;2023-03-31T11:57:41;14.40;99.90
14471;DHT22;7321;50.802;4.336;2023-03-31T12:02:50;14.20;99.90
14471;DHT22;7321;50.802;4.336;2023-03-31T12:05:18;14.30;99.90
14471;DHT22;7321;50.802;4.336;2023-03-31T12:08:06;14.20;99.90
14471;DHT22;7321;50.802;4.336;2023-03-31T12:10:38;14.00;99.90
14471;DHT22;7321;50.802;4.336;2023-03-31T12:15:43;13.70;99.90
14471;DHT22;7321;50.802;4.336;2023-03-31T12:18:23;13.60;99.90
14471;DHT22;7321;50.802;4.336;2023-03-31T12:21:00;13.60;99.90
14471;DHT22;7321;50.802;4.336;2023-03-31T12:23:30;13.40;99.90
14471;DHT22;7321;50.802;4.336;2023-03-31T12:28:35;13.20;99.90
14471;DHT22;7321;50.802;4.336;2023-03-31T12:31:05;13.10;99.90
14471;DHT22;7321;50.802;4.336;2023-03-31T12:33:40;13.20;99.90
14471;DHT22;7321;50.802;4.336;2023-03-31T12:36:32;13.20;99.90
14471;DHT22;7321;50.802;4.336;2023-03-31T12:52:51;13.90;99.90
14471;DHT22;7321;50.802;4.336;2023-03-31T12:55:40;13.80;99.90
14471;DHT22;7321;50.802;4.336;2023-03-31T13:06:44;14.10;99.90
14471;DHT22;7321;50.802;4.336;2023-03-31T13:14:26;14.00;99.90
14471;DHT22;7321;50.802;4.336;2023-03-31T13:17:11;13.90;99.90
14471;DHT22;7321;50.802;4.336;2023-03-31T13:19:40;14.00;99.90
14471;DHT22;7321;50.802;4.336;2023-03-31T13:22:19;13.80;99.90
14471;DHT22;7321;50.802;4.336;2023-03-31T13:24:51;13.80;99.90
14471;DHT22;7321;50.802;4.336;2023-03-31T13:27:30;13.70;99.90
14471;DHT22;7321;50.802;4.336;2023-03-31T13:29:57;13.60;99.90
14471;DHT22;7321;50.802;4.336;2023-03-31T13:32:24;13.50;99.90
14471;DHT22;7321;50.802;4.336;2023-03-31T13:40:24;13.40;99.90
14471;DHT22;7321;50.802;4.336;2023-03-31T13:46:02;13.40;99.90
14471;DHT22;7321;50.802;4.336;2023-03-31T14:11:15;13.10;99.90
14471;DHT22;7321;50.802;4.336;2023-03-31T14:13:42;13.00;99.90
14471;DHT22;7321;50.802;4.336;2023-03-31T14:16:08;13.00;99.90
14471;DHT22;7321;50.802;4.336;2023-03-31T14:18:37;13.00;99.90
14471;DHT22;7321;50.802;4.336;2023-03-31T14:21:39;13.00;99.90
14471;DHT22;7321;50.802;4.336;2023-03-31T14:37:44;13.60;99.90
14471;DHT22;7321;50.802;4.336;2023-03-31T14:40:14;13.60;99.90
14471;DHT22;7321;50.802;4.336;2023-03-31T14:42:41;13.50;99.90
14471;DHT22;7321;50.802;4.336;2023-03-31T14:45:25;13.40;99.90
14471;DHT22;7321;50.802;4.336;2023-03-31T14:47:57;13.40;99.90
14471;DHT22;7321;50.802;4.336;2023-03-31T14:50:36;13.30;99.90
14471;DHT22;7321;50.802;4.336;2023-03-31T14:53:02;13.20;99.90
14471;DHT22;7321;50.802;4.336;2023-03-31T14:55:31;13.20;99.90
14471;DHT22;7321;50.802;4.336;2023-03-31T14:57:59;13.20;99.90
14471;DHT22;7321;50.802;4.336;2023-03-31T15:00:30;13.30;99.90
14471;DHT22;7321;50.802;4.336;2023-03-31T15:02:58;13.10;99.90
14471;DHT22;7321;50.802;4.336;2023-03-31T15:07:56;13.10;99.90
14471;DHT22;7321;50.802;4.336;2023-03-31T15:10:22;13.10;99.90
14471;DHT22;7321;50.802;4.336;2023-03-31T15:12:49;13.10;99.90
14471;DHT22;7321;50.802;4.336;2023-03-31T15:15:18;13.00;99.90
14471;DHT22;7321;50.802;4.336;2023-03-31T15:17:46;12.90;99.90
14471;DHT22;7321;50.802;4.336;2023-03-31T15:20:39;13.00;99.90
14471;DHT22;7321;50.802;4.336;2023-03-31T15:23:26;13.10;99.90
14471;DHT22;7321;50.802;4.336;2023-03-31T15:26:08;13.20;99.90
14471;DHT22;7321;50.802;4.336;2023-03-31T15:28:45;13.20;99.90
14471;DHT22;7321;50.802;4.336;2023-03-31T15:31:13;13.30;99.90
14471;DHT22;7321;50.802;4.336;2023-03-31T15:33:41;13.30;99.90
14471;DHT22;7321;50.802;4.336;2023-03-31T15:36:09;13.50;99.90
14471;DHT22;7321;50.802;4.336;2023-03-31T15:38:35;13.50;99.90
14471;DHT22;7321;50.802;4.336;2023-03-31T15:41:02;13.40;99.90
14471;DHT22;7321;50.802;4.336;2023-03-31T15:43:58;13.40;99.90
14471;DHT22;7321;50.802;4.336;2023-03-31T15:46:47;13.40;99.90
14471;DHT22;7321;50.802;4.336;2023-03-31T15:49:23;13.40;99.90
14471;DHT22;7321;50.802;4.336;2023-03-31T15:51:50;13.30;99.90
14471;DHT22;7321;50.802;4.336;2023-03-31T15:54:35;13.20;99.90
14471;DHT22;7321;50.802;4.336;2023-03-31T15:57:06;13.20;99.90
14471;DHT22;7321;50.802;4.336;2023-03-31T15:59:52;13.10;99.90
14471;DHT22;7321;50.802;4.336;2023-03-31T16:02:35;13.10;99.90
14471;DHT22;7321;50.802;4.336;2023-03-31T16:05:02;13.10;99.90
14471;DHT22;7321;50.802;4.336;2023-03-31T16:07:35;12.90;99.90
14471;DHT22;7321;50.802;4.336;2023-03-31T16:10:14;13.00;99.90
14471;DHT22;7321;50.802;4.336;2023-03-31T16:12:50;12.90;99.90
14471;DHT22;7321;50.802;4.336;2023-03-31T16:15:27;12.90;99.90
14471;DHT22;7321;50.802;4.336;2023-03-31T16:18:02;12.90;99.90
14471;DHT22;7321;50.802;4.336;2023-03-31T16:20:36;12.90;99.90
14471;DHT22;7321;50.802;4.336;2023-03-31T16:23:13;12.80;99.90
14471;DHT22;7321;50.802;4.336;2023-03-31T16:25:43;12.80;99.90
14471;DHT22;7321;50.802;4.336;2023-03-31T16:28:19;12.70;99.90
14471;DHT22;7321;50.802;4.336;2023-03-31T16:30:46;12.60;99.90
14471;DHT22;7321;50.802;4.336;2023-03-31T16:33:15;12.60;99.90
14471;DHT22;7321;50.802;4.336;2023-03-31T16:35:52;12.50;99.90
14471;DHT22;7321;50.802;4.336;2023-03-31T16:38:22;12.50;99.90
14471;DHT22;7321;50.802;4.336;2023-03-31T16:40:55;12.50;99.90
14471;DHT22;7321;50.802;4.336;2023-03-31T16:43:29;12.50;99.90
14471;DHT22;7321;50.802;4.336;2023-03-31T16:46:02;12.50;99.90
14471;DHT22;7321;50.802;4.336;2023-03-31T16:48:42;12.50;99.90
14471;DHT22;7321;50.802;4.336;2023-03-31T16:51:08;12.50;99.90
14471;DHT22;7321;50.802;4.336;2023-03-31T16:53:35;12.40;99.90
14471;DHT22;7321;50.802;4.336;2023-03-31T16:56:09;12.20;99.90
14471;DHT22;7321;50.802;4.336;2023-03-31T16:58:37;12.10;99.90
14471;DHT22;7321;50.802;4.336;2023-03-31T17:01:04;12.20;99.90
14471;DHT22;7321;50.802;4.336;2023-03-31T17:03:34;12.10;99.90
14471;DHT22;7321;50.802;4.336;2023-03-31T17:06:10;12.20;99.90
14471;DHT22;7321;50.802;4.336;2023-03-31T17:08:37;12.10;99.90
14471;DHT22;7321;50.802;4.336;2023-03-31T17:11:10;12.00;99.90
14471;DHT22;7321;50.802;4.336;2023-03-31T17:13:39;11.90;99.90
14471;DHT22;7321;50.802;4.336;2023-03-31T17:16:05;12.00;99.90
14471;DHT22;7321;50.802;4.336;2023-03-31T17:18:31;11.90;99.90
14471;DHT22;7321;50.802;4.336;2023-03-31T17:21:08;11.80;99.90
14471;DHT22;7321;50.802;4.336;2023-03-31T17:23:38;11.70;99.90
14471;DHT22;7321;50.802;4.336;2023-03-31T17:26:06;11.70;99.90
14471;DHT22;7321;50.802;4.336;2023-03-31T17:28:45;11.70;99.90
14471;DHT22;7321;50.802;4.336;2023-03-31T17:31:20;11.70;99.90
14471;DHT22;7321;50.802;4.336;2023-03-31T17:33:46;11.70;99.90
14471;DHT22;7321;50.802;4.336;2023-03-31T17:36:12;11.60;99.90
14471;DHT22;7321;50.802;4.336;2023-03-31T17:38:40;11.70;99.90
14471;DHT22;7321;50.802;4.336;2023-03-31T17:41:08;11.60;99.90
14471;DHT22;7321;50.802;4.336;2023-03-31T17:43:35;11.60;99.90
14471;DHT22;7321;50.802;4.336;2023-03-31T17:46:07;11.50;99.90
14471;DHT22;7321;50.802;4.336;2023-03-31T17:48:37;11.40;99.90
14471;DHT22;7321;50.802;4.336;2023-03-31T17:51:08;11.50;99.90
14471;DHT22;7321;50.802;4.336;2023-03-31T17:53:35;11.50;99.90
14471;DHT22;7321;50.802;4.336;2023-03-31T17:56:02;11.50;99.90
14471;DHT22;7321;50.802;4.336;2023-03-31T17:58:28;11.50;99.90
14471;DHT22;7321;50.802;4.336;2023-03-31T18:00:55;11.50;99.90
14471;DHT22;7321;50.802;4.336;2023-03-31T18:03:21;11.50;99.90
14471;DHT22;7321;50.802;4.336;2023-03-31T18:05:47;11.50;99.90
14471;DHT22;7321;50.802;4.336;2023-03-31T18:08:14;11.40;99.90
14471;DHT22;7321;50.802;4.336;2023-03-31T18:10:40;11.30;99.90
14471;DHT22;7321;50.802;4.336;2023-03-31T18:13:07;11.40;99.90
14471;DHT22;7321;50.802;4.336;2023-03-31T18:15:34;11.30;99.90
14471;DHT22;7321;50.802;4.336;2023-03-31T18:18:00;11.30;99.90
14471;DHT22;7321;50.802;4.336;2023-03-31T18:20:26;11.40;99.90
14471;DHT22;7321;50.802;4.336;2023-03-31T18:22:52;11.30;99.90
14471;DHT22;7321;50.802;4.336;2023-03-31T18:25:18;11.10;99.90
14471;DHT22;7321;50.802;4.336;2023-03-31T18:27:44;11.10;99.90
14471;DHT22;7321;50.802;4.336;2023-03-31T18:30:12;11.10;99.90
14471;DHT22;7321;50.802;4.336;2023-03-31T18:32:38;11.30;99.90
14471;DHT22;7321;50.802;4.336;2023-03-31T18:35:05;11.20;99.90
14471;DHT22;7321;50.802;4.336;2023-03-31T18:37:31;11.30;99.90
14471;DHT22;7321;50.802;4.336;2023-03-31T18:39:58;11.30;99.90
14471;DHT22;7321;50.802;4.336;2023-03-31T18:42:27;11.30;99.90
14471;DHT22;7321;50.802;4.336;2023-03-31T18:44:56;11.30;99.90
14471;DHT22;7321;50.802;4.336;2023-03-31T18:47:22;11.30;99.90
14471;DHT22;7321;50.802;4.336;2023-03-31T18:49:49;11.40;99.90
14471;DHT22;7321;50.802;4.336;2023-03-31T18:52:18;11.40;99.90
14471;DHT22;7321;50.802;4.336;2023-03-31T18:54:44;11.50;99.90
14471;DHT22;7321;50.802;4.336;2023-03-31T18:57:10;11.50;99.90
14471;DHT22;7321;50.802;4.336;2023-03-31T18:59:36;11.50;99.90
14471;DHT22;7321;50.802;4.336;2023-03-31T19:02:02;11.60;99.90
14471;DHT22;7321;50.802;4.336;2023-03-31T19:04:28;11.50;99.90
14471;DHT22;7321;50.802;4.336;2023-03-31T19:06:54;11.40;99.90
14471;DHT22;7321;50.802;4.336;2023-03-31T19:09:21;11.60;99.90
14471;DHT22;7321;50.802;4.336;2023-03-31T19:11:52;11.60;99.90
14471;DHT22;7321;50.802;4.336;2023-03-31T19:14:18;11.50;99.90
14471;DHT22;7321;50.802;4.336;2023-03-31T19:16:44;11.40;99.90